Llanelli, United Kingdom
Current Conditions -  °F | °C
As of 12:50 PM on Saturday 01 Nov 2014 (Local Time) from EGOP Reporting Station
Broken Clouds Broken Clouds  
Wind Chill: 59°   Ceiling: 7000
Heat Index: 59°   Visibility: 6mi
Dew Point: 52°   Wind: 31mph
Humidity: 77%   Direction: 200°SSW
Pressure: 29.88"   Gusts: NA
Location:  51.68°N, 4.16°W
Report Text: EGOP 011250Z AUTO 20027KT 9999 // SCT022/// BKN070/// 15/11 Q1012
Loading
Personal Weather Stations






























Interactive Weather Map
Tropical Storm Tracking
New forecast layout! Learn more

10-Day Weather Forecast

Advertisements
Track Severe Weather on mobile